Latest Coastal Weather Observations for Wilsons Promontory

IDT60701

Issued at 10:35 pm EST Thursday 17 April 2014 (issued every 10 minutes, with the page automatically refreshed every 10 minutes)

About coastal observations | Map of coastal stations | Coastal observations for TAS | Marine services | Other Formats
Station Details ID: 085096 Name: WILSONS PROMONTORY LIGHTHOUSE Lat: -39.13 Lon: 146.42 Height: 95.0 m
Data from the previous 72 hours. | See also: Recent months at Wilsons Promontory
Date/Time
EST
Temp

°C
Wind Pressure Rain
since 9am
mm
Weather Cloud Vis
km
Sea
Height
m
Swell
Dir
 
Speed
knots
Gust
knots
hPa Trend Height
m
Period
s
Dir
17/10:30pm 15.8 N 10 12 1017.8 - 0.0 - - - - - - -
17/10:00pm 15.6 N 9 11 1018.1 - 0.0 - - - - - - -
17/09:30pm 15.8 N 10 12 1018.1 - 0.0 - - - - - - -
17/09:00pm 15.5 N 10 12 1017.9 - 0.0 - - - - - - -
17/08:30pm 15.4 N 10 11 1018.1 - 0.0 - - - - - - -
17/08:00pm 15.3 NNE 10 11 1018.2 - 0.0 - - - - - - -
17/07:30pm 15.5 N 8 9 1018.3 - 0.0 - - - - - - -
17/07:00pm 15.6 NNE 9 12 1018.4 - 0.0 - - - - - - -
17/06:30pm 15.6 NNE 9 11 1018.4 - 0.0 - - - - - - -
17/06:00pm 15.5 NNE 8 9 1018.2 - 0.0 - - - - - - -
17/05:30pm 15.7 NNE 7 8 1018.4 - 0.0 - - - - - - -
17/05:00pm 16.2 NNE 5 5 1018.5 - 0.0 - - - - - - -
17/04:30pm 16.8 NNE 4 5 1018.6 - 0.0 - - - - - - -
17/04:00pm 16.8 ENE 3 4 1018.7 - 0.0 - - - - - - -
17/03:30pm 16.9 SSE 1 3 1018.9 - 0.0 - - - - - - -
17/03:00pm 17.3 SW 3 4 1018.9 - 0.0 - - - - - - -
17/02:30pm 17.8 SW 3 5 1019.2 - 0.0 - - - - - - -
17/02:00pm 18.2 SW 4 5 1019.4 - 0.0 - - - - - - -
17/01:30pm 18.0 SW 3 5 1019.5 - 0.0 - - - - - - -
17/01:00pm 17.5 CALM 0 3 1019.7 - 0.0 - - - - - - -
17/12:30pm 17.7 ESE 3 4 1020.0 - 0.0 - - - - - - -
17/12:00pm 16.5 ENE 3 4 1020.2 - 0.0 - - - - - - -
17/11:30am 17.1 E 4 5 1020.4 - 0.0 - - - - - - -
17/11:00am 17.2 ESE 4 5 1020.5 - 0.0 - - - - - - -
17/10:30am 17.0 E 4 5 1020.6 - 0.0 - - - - - - -
17/10:00am 17.2 ESE 5 6 1020.6 - 0.0 - - - - - - -
17/09:30am 17.1 ESE 4 5 1020.7 - 0.0 - - - - - - -
17/09:00am 17.1 E 4 5 1020.7 - 0.0 - - - - - - -
17/08:30am 17.3 ENE 3 5 1020.6 - 0.0 - - - - - - -
17/08:00am 17.2 NE 5 6 1020.4 - 0.0 - - - - - - -
17/07:30am 16.1 NNW 4 6 1020.2 - 0.0 - - - - - - -
17/07:00am 14.9 WNW 8 10 1020.0 - 0.0 - - - - - - -
17/06:30am 14.8 WNW 7 10 1019.7 - 0.0 - - - - - - -
17/06:00am 14.9 N 4 7 1019.5 - 0.0 - - - - - - -
17/05:30am 15.0 NW 7 11 1019.3 - 0.0 - - - - - - -
17/05:00am 14.6 NNE 5 7 1019.4 - 0.0 - - - - - - -
17/04:30am 14.8 N 8 10 1019.4 - 0.0 - - - - - - -
17/04:00am 14.9 NNE 9 12 1019.1 - 0.0 - - - - - - -
17/03:30am 14.8 N 11 14 1018.8 - 0.0 - - - - - - -
17/03:00am 14.8 N 12 16 1018.6 - 0.0 - - - - - - -
17/02:30am 14.7 N 11 15 1018.8 - 0.0 - - - - - - -
17/02:00am 14.9 N 12 17 1018.9 - 0.0 - - - - - - -
17/01:30am 15.0 N 12 16 1019.2 - 0.0 - - - - - - -
17/01:00am 15.1 NNE 11 19 1019.1 - 0.0 - - - - - - -
17/12:30am 14.9 NNE 11 17 1019.2 - 0.0 - - - - - - -
17/12:00am 14.9 NNE 13 19 1019.0 - 0.0 - - - - - - -
 
Date/Time
EST
Temp

°C
Wind Pressure Rain
since 9am
mm
Weather Cloud Vis
km
Sea
Height
m
Swell
Dir
 
Speed
knots
Gust
knots
hPa Trend Height
m
Period
s
Dir
16/11:30pm 14.9 NNE 12 17 1019.4 - 0.0 - - - - - - -
16/11:00pm 15.0 NNE 11 16 1019.7 - 0.0 - - - - - - -
16/10:30pm 15.1 NNE 12 16 1019.8 - 0.0 - - - - - - -
16/10:00pm 15.1 NNE 13 17 1019.8 - 0.0 - - - - - - -
16/09:30pm 15.0 NNE 11 15 1020.0 - 0.0 - - - - - - -
16/09:00pm 15.1 NNE 12 17 1019.9 - 0.0 - - - - - - -
16/08:30pm 15.0 NNE 12 16 1019.9 - 0.0 - - - - - - -
16/08:00pm 15.1 NNE 12 15 1019.9 - 0.0 - - - - - - -
16/07:30pm 15.0 NNE 11 14 1019.7 - 0.0 - - - - - - -
16/07:00pm 15.0 NNE 12 15 1019.8 - 0.0 - - - - - - -
16/06:30pm 15.1 NNE 12 16 1019.7 - 0.0 - - - - - - -
16/06:00pm 14.9 NNE 10 15 1019.2 - 0.0 - - - - - - -
16/05:30pm 15.2 NE 13 15 1019.3 - 0.0 - - - - - - -
16/05:00pm 15.4 NE 12 15 1019.1 - 0.0 - - - - - - -
16/04:30pm 15.6 NE 12 15 1018.9 - 0.0 - - - - - - -
16/04:00pm 16.1 NE 12 15 1019.1 - 0.0 - - - - - - -
16/03:30pm 16.0 NE 14 17 1019.1 - 0.0 - - - - - - -
16/03:00pm 16.1 NE 13 16 1019.3 - 0.0 - - - - - - -
16/02:30pm 16.0 NE 15 17 1019.3 - 0.0 - - - - - - -
16/02:00pm 16.2 ENE 14 16 1019.5 - 0.0 - - - - - - -
16/01:30pm 16.5 ENE 13 16 1019.6 - 0.0 - - - - - - -
16/01:00pm 16.4 ENE 14 17 1019.7 - 0.0 - - - - - - -
16/12:30pm 16.4 ENE 16 18 1019.9 - 0.0 - - - - - - -
16/12:00pm 16.1 ENE 17 20 1020.1 - 0.0 - - - - - - -
16/11:30am 16.7 E 16 19 1020.7 - 0.0 - - - - - - -
16/11:00am 16.1 E 15 18 1021.0 - 0.0 - - - - - - -
16/10:30am 16.9 E 13 16 1021.3 - 0.0 - - - - - - -
16/10:00am 16.2 E 18 21 1021.2 - 0.0 - - - - - - -
16/09:30am 16.4 ENE 18 22 1021.2 - 0.0 - - - - - - -
16/09:00am 16.8 ENE 16 19 1021.3 - 0.0 - - - - - - -
16/08:30am 16.4 ENE 16 19 1021.5 - 0.0 - - - - - - -
16/08:00am 16.1 ENE 14 18 1021.5 - 0.0 - - - - - - -
16/07:30am 15.9 E 13 16 1021.6 - 0.0 - - - - - - -
16/07:00am 15.2 E 13 16 1021.6 - 0.0 - - - - - - -
16/06:30am 15.1 ENE 14 16 1021.4 - 0.0 - - - - - - -
16/06:00am 15.0 E 13 16 1021.3 - 0.0 - - - - - - -
16/05:30am 15.0 E 12 15 1021.4 - 0.0 - - - - - - -
16/05:00am 15.2 E 13 16 1021.3 - 0.0 - - - - - - -
16/04:30am 15.4 ENE 11 14 1021.3 - 0.0 - - - - - - -
16/04:00am 15.3 E 11 14 1021.3 - 0.0 - - - - - - -
16/03:30am 15.2 ENE 12 14 1021.5 - 0.0 - - - - - - -
16/03:00am 15.2 ENE 13 16 1021.5 - 0.0 - - - - - - -
16/02:30am 15.3 NE 15 17 1021.7 - 0.0 - - - - - - -
16/02:00am 15.4 NE 17 19 1022.0 - 0.0 - - - - - - -
16/01:30am 15.4 ENE 17 20 1022.4 - 0.0 - - - - - - -
16/01:00am 15.6 NE 19 22 1022.5 - 0.0 - - - - - - -
16/12:30am 15.5 ENE 20 24 1022.6 - 0.0 - - - - - - -
16/12:00am 15.6 ENE 20 25 1022.5 - 0.0 - - - - - - -
 
Date/Time
EST
Temp

°C
Wind Pressure Rain
since 9am
mm
Weather Cloud Vis
km
Sea
Height
m
Swell
Dir
 
Speed
knots
Gust
knots
hPa Trend Height
m
Period
s
Dir
15/11:30pm 15.7 NE 20 23 1022.8 - 0.0 - - - - - - -
15/11:00pm 15.6 NE 20 24 1023.2 - 0.0 - - - - - - -
15/10:30pm 15.8 NE 19 24 1023.3 - 0.0 - - - - - - -
15/10:00pm 15.7 ENE 19 23 1023.5 - 0.0 - - - - - - -
15/09:30pm 15.6 ENE 20 23 1023.6 - 0.0 - - - - - - -
15/09:00pm 15.6 ENE 18 22 1023.5 - 0.0 - - - - - - -
15/08:30pm 15.8 ENE 19 23 1023.6 - 0.0 - - - - - - -
15/08:00pm 15.9 ENE 17 21 1023.7 - 0.0 - - - - - - -
15/07:30pm 15.8 ENE 17 20 1023.5 - 0.0 - - - - - - -
15/07:00pm 15.9 ENE 18 21 1023.5 - 0.0 - - - - - - -
15/06:30pm 15.9 ENE 19 23 1023.1 - 0.0 - - - - - - -
15/06:00pm 15.9 ENE 18 21 1022.8 - 0.0 - - - - - - -
15/05:30pm 16.0 ENE 19 22 1022.5 - 0.0 - - - - - - -
15/05:00pm 16.3 ENE 18 21 1022.6 - 0.0 - - - - - - -
15/04:30pm 16.5 ENE 15 18 1022.6 - 0.0 - - - - - - -
15/04:00pm 16.6 ENE 15 17 1022.7 - 0.0 - - - - - - -
15/03:30pm 16.6 ENE 14 16 1023.0 - 0.0 - - - - - - -
15/03:00pm 16.7 ENE 13 16 1022.9 - 0.0 - - - - - - -
15/02:30pm 16.7 ENE 14 16 1022.8 - 0.0 - - - - - - -
15/02:00pm 16.7 ENE 13 15 1022.8 - 0.0 - - - - - - -
15/01:30pm 16.9 ENE 13 15 1022.9 - 0.0 - - - - - - -
15/01:00pm 16.7 ENE 13 15 1023.1 - 0.0 - - - - - - -
15/12:30pm 17.0 ENE 8 10 1023.4 - 0.0 - - - - - - -
15/12:00pm 16.9 ENE 10 13 1023.6 - 0.0 - - - - - - -
15/11:30am 17.4 E 7 10 1023.9 - 0.0 - - - - - - -
15/11:00am 17.2 ENE 6 7 1024.0 - 0.0 - - - - - - -
15/10:30am 17.1 E 5 7 1024.0 - 0.0 - - - - - - -
15/10:00am 17.7 E 4 5 1024.0 - 0.0 - - - - - - -
15/09:30am 17.5 CALM 0 0 1024.0 - 0.0 - - - - - - -
15/09:00am 17.0 CALM 0 0 1024.0 - 0.0 - - - - - - -
15/08:30am 15.9 CALM 0 0 1024.2 - 0.0 - - - - - - -
15/08:00am 16.4 E 2 4 1024.0 - 0.0 - - - - - - -
15/07:30am 16.1 ESE 2 3 1023.8 - 0.0 - - - - - - -
15/07:00am 14.7 SSE 4 6 1023.5 - 0.0 - - - - - - -
15/06:30am 14.6 WSW 2 4 1023.4 - 0.0 - - - - - - -
15/06:00am 14.3 WSW 3 4 1023.1 - 0.0 - - - - - - -
15/05:30am 14.3 WSW 2 3 1023.0 - 0.0 - - - - - - -
15/05:00am 14.3 WSW 4 5 1023.0 - 0.0 - - - - - - -
15/04:30am 14.3 WSW 3 4 1022.9 - 0.0 - - - - - - -
15/04:00am 14.2 W 4 5 1022.8 - 0.0 - - - - - - -
15/03:30am 14.3 WSW 3 4 1022.7 - 0.0 - - - - - - -
15/03:00am 14.6 WSW 7 8 1022.6 - 0.0 - - - - - - -
15/02:30am 14.7 WSW 7 9 1022.9 - 0.0 - - - - - - -
15/02:00am 14.6 WSW 5 6 1023.2 - 0.0 - - - - - - -
15/01:30am 14.7 W 5 7 1023.2 - 0.0 - - - - - - -
15/01:00am 14.9 W 8 9 1023.2 - 0.0 - - - - - - -
15/12:30am 14.8 W 10 11 1023.1 - 0.0 - - - - - - -
15/12:00am 14.7 W 10 12 1022.9 - 0.0 - - - - - - -
 
Date/Time
EST
Temp

°C
Wind Pressure Rain
since 9am
mm
Weather Cloud Vis
km
Sea
Height
m
Swell
Dir
 
Speed
knots
Gust
knots
hPa Trend Height
m
Period
s
Dir
14/11:30pm 14.8 W 11 13 1023.0 - 0.0 - - - - - - -
14/11:00pm 14.8 W 10 12 1023.2 - 0.0 - - - - - - -

Other Formats:

Comma delimited format used in spreadsheet applications
http://www.bom.gov.au/fwo/IDT60701/IDT60701.94893.axf

JavaScript Object Notation format (JSON) in row-major order
http://www.bom.gov.au/fwo/IDT60701/IDT60701.94893.json